Hlavní strana
METAR-TAF:

METAR-TAF

Letiště :

Brazzaville, Kongo

zeměpisná šířka: 04-15S, zeměpisná délka: 015-15E, výška: 319 m

Aktuální stav počasí

Zpráva byla vytvořena před 1 hodinou a 14 minutami, v 11:00 UTC
Západní vítr 5 kt, proměnlivý mezi jihojihozápadním a severoseverovýchodním
Teplota 31°C
Vlhkost vzduchu 63%
Tlak 1011 hPa
Viditelnost 10 km a více
Polojasno ve výšce 1800 ft
Skoro jasno ve výšce 2800 ft, Cumulonimbus.

METAR: FCBB 221100Z 28005KT 210V020 9999 SCT018 FEW028CB 31/23 Q1011 NOSIG

Čas: 13:14 (12:14 UTC)

Předpověď počasí

Zpráva byla vytvořena před 1 hodinou a 14 minutami, v 11:00 UTC
Předpověď platná od 22 v 12 UTC do 23 v 18 UTC
Západní vítr 5 kt
Viditelnost 10 km a více
Polojasno ve výšce 1800 ft
Skoro jasno ve výšce 3000 ft, Cumulonimbus.
Změna
od 22 v 15 UTC do 22 v 17 UTC
bouřka, slabý déšť
Změna
od 23 v 03 UTC do 23 v 05 UTC
Polojasno ve výšce 1000 ft

TAF: FCBB 221100Z 2212/2318 28005KT 9999 SCT018 FEW030CB BECMG 2215/2217 -TSRA BECMG 2303/2305 NSW SCT010

Stav a předpovědi počasí z více než 4 000 letišť (zprávy METAR a TAF).

Červené a žluté tečky na mapě představují dostupné meteorologické stanice.

Když kurzor umístíte na tečku, zobrazí se název stanice.

Pak kliknutím zobrazíte stav a předpověď počasí.

Chcete-li změnit mapu, kliknutím na zelené tlačítko se znaménkem +mapu přiblížíte, kliknutím na zelené tlačítko se znaménkem – mapu oddálíte a kliknutím na zelené šipky přejdete na sousední mapy.


METAR-TAF: